Time;durP1;ratioP1;P1;durP2;ratioP2;P2;SDS_P1;SDS_P2;PMS_P1;PMS_P2;Temp;Humidity;BMP_temperature;BMP_pressure;BME280_temperature;BME280_humidity;BME280_pressure;Samples;Min_cycle;Max_cycle;Signal;HPM_P1;HPM_P2
2024/03/05 00:02:34;;;;;;;123.33;53.77;;;8.00;99.90;;;;;;4401523;28;659431;-75
2024/03/05 00:05:21;;;;;;;130.87;55.13;;;8.00;99.60;;;;;;4418599;28;658484;-75
2024/03/05 00:08:09;;;;;;;123.40;51.83;;;8.00;97.70;;;;;;4398011;28;658926;-75
2024/03/05 00:10:56;;;;;;;133.33;55.63;;;8.00;98.40;;;;;;4420052;28;658814;-75
2024/03/05 00:13:45;;;;;;;137.20;56.33;;;7.90;99.90;;;;;;4400514;28;659102;-75
2024/03/05 00:16:32;;;;;;;142.17;59.73;;;7.90;99.90;;;;;;4418780;28;658626;-75
2024/03/05 00:19:19;;;;;;;140.53;57.70;;;7.90;99.90;;;;;;4397807;28;659031;-75
2024/03/05 00:22:06;;;;;;;132.17;55.13;;;8.00;99.90;;;;;;4411281;28;658424;-75
2024/03/05 00:24:53;;;;;;;132.70;55.27;;;8.00;99.90;;;;;;4400392;28;658639;-75
2024/03/05 00:27:41;;;;;;;124.35;55.30;;;8.00;99.90;;;;;;4420875;28;659401;-75
2024/03/05 00:30:29;;;;;;;127.20;54.93;;;8.00;99.90;;;;;;4386756;28;658426;-75
2024/03/05 00:33:16;;;;;;;133.87;55.93;;;7.90;91.40;;;;;;4426589;28;658365;-74
2024/03/05 00:36:05;;;;;;;129.67;54.87;;;7.90;86.70;;;;;;4405815;28;658561;-75
2024/03/05 00:38:52;;;;;;;130.97;53.87;;;7.90;82.70;;;;;;4415290;28;658869;-75
2024/03/05 00:41:39;;;;;;;124.30;52.67;;;7.80;91.00;;;;;;4398516;28;658806;-75
2024/03/05 00:44:26;;;;;;;119.40;51.73;;;7.90;78.00;;;;;;4413539;28;658895;-75
2024/03/05 00:47:15;;;;;;;123.93;52.00;;;7.80;41.50;;;;;;4401113;28;658884;-75
2024/03/05 00:50:04;;;;;;;119.53;50.10;;;7.90;41.80;;;;;;4401469;28;658807;-75
2024/03/05 00:52:51;;;;;;;123.33;51.87;;;7.80;40.20;;;;;;4410644;28;659732;-75
2024/03/05 00:55:39;;;;;;;119.70;50.90;;;7.80;46.40;;;;;;4397834;28;658526;-76
2024/03/05 00:58:26;;;;;;;118.67;50.83;;;7.80;52.00;;;;;;4411748;28;658866;-75
2024/03/05 01:01:13;;;;;;;122.87;50.43;;;7.90;76.00;;;;;;4391193;28;658094;-76
2024/03/05 01:04:03;;;;;;;117.68;49.60;;;7.80;45.20;;;;;;4422877;28;659152;-75
2024/03/05 01:06:51;;;;;;;125.17;51.07;;;7.80;45.50;;;;;;4386138;28;659667;-75
2024/03/05 01:09:38;;;;;;;129.27;51.70;;;7.70;56.10;;;;;;4403088;28;658857;-75
2024/03/05 01:12:25;;;;;;;134.80;52.77;;;7.70;72.40;;;;;;4419442;28;659112;-75
2024/03/05 01:15:13;;;;;;;119.35;48.05;;;7.70;90.20;;;;;;4400537;28;658469;-75
2024/03/05 01:18:01;;;;;;;116.03;47.03;;;7.80;99.90;;;;;;4426728;28;659097;-75
2024/03/05 01:20:49;;;;;;;115.83;48.30;;;7.90;99.90;;;;;;4396769;28;658491;-75
2024/03/05 01:23:38;;;;;;;124.43;49.70;;;7.80;99.90;;;;;;4432603;28;658538;-76
2024/03/05 01:26:25;;;;;;;122.27;49.53;;;7.70;99.90;;;;;;4377939;28;659206;-76
2024/03/05 01:29:16;;;;;;;129.57;51.23;;;7.70;99.90;;;;;;4406562;28;658686;-76
2024/03/05 01:32:03;;;;;;;130.43;50.07;;;7.80;99.90;;;;;;4406426;28;658864;-76
2024/03/05 01:34:54;;;;;;;111.40;48.70;;;7.80;99.90;;;;;;4423356;28;659297;-76
2024/03/05 01:37:43;;;;;;;117.73;48.53;;;7.80;99.90;;;;;;4394577;28;658197;-76
2024/03/05 01:40:30;;;;;;;116.03;47.63;;;7.90;99.90;;;;;;4399890;28;658765;-76
2024/03/05 01:43:20;;;;;;;115.87;47.43;;;7.90;99.90;;;;;;4403338;28;658694;-76
2024/03/05 01:46:08;;;;;;;117.33;47.17;;;7.80;99.90;;;;;;4407691;28;658474;-76
2024/03/05 01:48:55;;;;;;;122.30;50.53;;;7.80;99.90;;;;;;4406933;28;659229;-76
2024/03/05 01:51:44;;;;;;;138.67;49.20;;;7.70;99.90;;;;;;4419248;28;658932;-76
2024/03/05 01:54:32;;;;;;;141.53;52.40;;;7.60;99.90;;;;;;4408099;28;659333;-76
2024/03/05 01:57:20;;;;;;;144.53;54.23;;;7.70;99.90;;;;;;4406755;28;658889;-76
2024/03/05 02:00:09;;;;;;;141.17;50.17;;;7.70;99.90;;;;;;4397626;28;658310;-76
2024/03/05 02:02:57;;;;;;;135.13;45.37;;;7.70;99.90;;;;;;4421259;28;659216;-76
2024/03/05 02:05:44;;;;;;;110.87;41.57;;;7.60;99.90;;;;;;4399512;28;658940;-76
2024/03/05 02:08:31;;;;;;;121.37;43.17;;;7.60;99.90;;;;;;4406427;28;658023;-76
2024/03/05 02:11:20;;;;;;;148.13;37.17;;;7.50;99.90;;;;;;4399918;28;659114;-76
2024/03/05 02:14:08;;;;;;;76.20;31.07;;;7.50;99.90;;;;;;4393169;28;658616;-76
2024/03/05 02:16:56;;;;;;;82.77;28.40;;;7.30;99.90;;;;;;4436073;28;658999;-76
2024/03/05 02:19:47;;;;;;;68.07;27.10;;;7.20;99.90;;;;;;4414347;28;657593;-76
2024/03/05 02:22:35;;;;;;;76.70;25.37;;;7.20;99.90;;;;;;4394531;28;657821;-76
2024/03/05 02:25:22;;;;;;;69.80;24.13;;;7.10;99.90;;;;;;4391160;28;657836;-75
2024/03/05 02:28:10;;;;;;;85.23;23.17;;;7.00;99.90;;;;;;4429019;28;658488;-76
2024/03/05 02:30:58;;;;;;;72.73;24.27;;;6.90;94.00;;;;;;4405587;28;657278;-76
2024/03/05 02:33:45;;;;;;;69.33;22.87;;;6.80;95.40;;;;;;4420816;28;657481;-77
2024/03/05 02:36:33;;;;;;;59.27;22.57;;;6.70;97.90;;;;;;4409926;28;657539;-76
2024/03/05 02:39:22;;;;;;;60.47;22.80;;;6.80;99.90;;;;;;4412302;28;658316;-76
2024/03/05 02:42:10;;;;;;;55.17;22.30;;;6.70;99.90;;;;;;4401234;28;658417;-76
2024/03/05 02:44:57;;;;;;;60.17;22.30;;;6.70;99.90;;;;;;4400884;28;657265;-76
2024/03/05 02:47:45;;;;;;;51.93;21.67;;;6.70;99.90;;;;;;4416901;28;657849;-75
2024/03/05 02:50:34;;;;;;;56.20;21.90;;;6.70;99.90;;;;;;4411066;28;657572;-75
2024/03/05 02:53:21;;;;;;;54.53;21.27;;;6.70;99.90;;;;;;4423197;28;657719;-75
2024/03/05 02:56:12;;;;;;;47.80;20.00;;;6.70;99.90;;;;;;4392962;28;658499;-75
2024/03/05 02:58:59;;;;;;;47.87;19.30;;;6.70;99.90;;;;;;4388177;28;658488;-76
2024/03/05 03:01:47;;;;;;;48.17;18.87;;;6.60;58.00;;;;;;4417398;28;657813;-75
2024/03/05 03:04:34;;;;;;;48.90;18.87;;;6.60;26.70;;;;;;4405287;28;657713;-75
2024/03/05 03:07:22;;;;;;;56.00;20.03;;;6.40;1.00;;;;;;4417056;28;658219;-75
2024/03/05 03:10:11;;;;;;;49.50;19.33;;;6.40;5.70;;;;;;4397071;28;656348;-75
2024/03/05 03:13:00;;;;;;;50.47;17.67;;;6.50;7.90;;;;;;4393146;28;656922;-75
2024/03/05 03:15:47;;;;;;;49.97;18.60;;;6.50;1.00;;;;;;4410681;28;656032;-75
2024/03/05 03:18:34;;;;;;;44.40;18.07;;;6.50;1.00;;;;;;4382543;28;657096;-75
2024/03/05 03:21:22;;;;;;;46.07;17.03;;;6.40;1.00;;;;;;4420744;28;656707;-75
2024/03/05 03:24:12;;;;;;;50.07;18.77;;;6.40;1.00;;;;;;4404955;28;656875;-75
2024/03/05 03:26:59;;;;;;;46.53;17.77;;;6.20;1.00;;;;;;4398676;28;657343;-76
2024/03/05 03:29:48;;;;;;;45.73;17.37;;;6.20;1.00;;;;;;4403720;28;656706;-76
2024/03/05 03:32:35;;;;;;;48.80;17.03;;;6.20;1.00;;;;;;4393950;28;657041;-76
2024/03/05 03:35:23;;;;;;;45.47;17.93;;;6.20;1.00;;;;;;4409519;28;657109;-76
2024/03/05 03:38:10;;;;;;;44.80;19.03;;;6.20;3.20;;;;;;4409919;28;657764;-75
2024/03/05 03:40:57;;;;;;;47.07;18.23;;;6.20;1.00;;;;;;4412771;28;656883;-75
2024/03/05 03:43:45;;;;;;;42.83;18.60;;;6.20;12.40;;;;;;4407418;28;657063;-76
2024/03/05 03:46:34;;;;;;;42.30;17.13;;;6.20;19.70;;;;;;4422769;28;657984;-76
2024/03/05 03:49:23;;;;;;;45.40;16.37;;;6.20;20.60;;;;;;4401725;28;657509;-75
2024/03/05 03:52:11;;;;;;;45.17;18.07;;;6.00;31.70;;;;;;4406099;28;658462;-76
2024/03/05 03:54:58;;;;;;;42.53;17.23;;;6.00;19.80;;;;;;4386833;28;657345;-76
2024/03/05 03:57:47;;;;;;;44.67;17.73;;;6.10;27.30;;;;;;4399449;28;658855;-75
2024/03/05 04:00:34;;;;;;;43.20;17.30;;;6.00;4.50;;;;;;4391978;28;657839;-75
2024/03/05 04:03:23;;;;;;;40.70;17.47;;;6.10;22.80;;;;;;4414122;28;655760;-75
2024/03/05 04:06:11;;;;;;;36.20;11.50;;;6.10;32.60;;;;;;4387911;28;658111;-75
2024/03/05 04:08:59;;;;;;;38.80;16.03;;;6.10;26.00;;;;;;4396171;28;658050;-75
2024/03/05 04:11:47;;;;;;;36.13;16.20;;;6.10;1.00;;;;;;4426567;28;657709;-75
2024/03/05 04:14:34;;;;;;;39.43;16.37;;;6.10;1.80;;;;;;4413412;28;658856;-75
2024/03/05 04:17:21;;;;;;;39.63;16.10;;;6.10;2.90;;;;;;4417132;28;656367;-75
2024/03/05 04:20:14;;;;;;;39.78;15.98;;;6.10;7.70;;;;;;4390368;28;656857;-75
2024/03/05 04:23:02;;;;;;;41.40;16.50;;;5.90;5.70;;;;;;4388857;28;656466;-75
2024/03/05 04:25:50;;;;;;;35.80;15.23;;;6.00;13.60;;;;;;4402179;28;657056;-75
2024/03/05 04:28:48;;;;;;;32.97;13.18;;;6.00;1.00;;;;;;4394940;28;657445;-75
2024/03/05 04:31:37;;;;;;;46.63;17.10;;;6.00;1.00;;;;;;4390043;28;656608;-75
2024/03/05 04:34:24;;;;;;;47.80;17.07;;;5.90;1.00;;;;;;4403127;28;657037;-75
2024/03/05 04:37:13;;;;;;;44.50;17.60;;;5.90;13.50;;;;;;4410377;28;656883;-76
2024/03/05 04:40:01;;;;;;;43.87;17.47;;;5.90;14.30;;;;;;4395052;28;658203;-75
2024/03/05 04:42:49;;;;;;;49.43;16.87;;;5.90;14.80;;;;;;4395627;28;658041;-75
2024/03/05 04:45:37;;;;;;;53.07;19.27;;;5.80;30.80;;;;;;4413565;28;657356;-75
2024/03/05 04:48:25;;;;;;;44.07;16.53;;;5.80;22.90;;;;;;4392344;28;657719;-75
2024/03/05 04:51:13;;;;;;;51.37;17.17;;;5.80;36.70;;;;;;4420403;28;657286;-75
2024/03/05 04:54:02;;;;;;;56.53;21.97;;;5.80;21.20;;;;;;4419217;28;657790;-75
2024/03/05 04:56:49;;;;;;;65.73;24.17;;;5.70;21.70;;;;;;4378515;28;657988;-75
2024/03/05 04:59:36;;;;;;;46.23;19.87;;;5.70;24.40;;;;;;4415889;28;656958;-75
2024/03/05 05:02:24;;;;;;;41.30;18.63;;;5.60;44.90;;;;;;4387750;28;657357;-75
2024/03/05 05:05:11;;;;;;;34.67;16.37;;;5.60;43.80;;;;;;4411899;28;657569;-75
2024/03/05 05:07:59;;;;;;;39.57;18.20;;;5.50;25.70;;;;;;4396595;28;658704;-75
2024/03/05 05:10:48;;;;;;;45.90;18.70;;;5.50;19.80;;;;;;4410967;28;657270;-75
2024/03/05 05:13:35;;;;;;;38.07;16.47;;;5.50;2.80;;;;;;4398694;28;658099;-75
2024/03/05 05:16:24;;;;;;;34.73;16.53;;;5.60;25.50;;;;;;4413254;28;656418;-75
2024/03/05 05:19:11;;;;;;;38.10;18.13;;;5.60;1.00;;;;;;4428821;28;657859;-75
2024/03/05 05:21:58;;;;;;;39.80;17.27;;;5.50;1.00;;;;;;4407994;28;656281;-75
2024/03/05 05:24:45;;;;;;;43.30;20.03;;;5.60;1.00;;;;;;4410148;28;657156;-75
2024/03/05 05:27:35;;;;;;;45.53;20.20;;;5.50;1.00;;;;;;4386360;28;657097;-75
2024/03/05 05:30:23;;;;;;;41.97;19.17;;;5.40;1.00;;;;;;4410247;28;656440;-75
2024/03/05 05:33:10;;;;;;;52.10;21.37;;;5.50;1.00;;;;;;4410236;28;657342;-75
2024/03/05 05:35:57;;;;;;;47.30;21.07;;;5.50;1.00;;;;;;4385316;28;656860;-75
2024/03/05 05:38:45;;;;;;;46.33;21.27;;;5.50;1.00;;;;;;4411004;28;657432;-75
2024/03/05 05:41:32;;;;;;;45.17;19.80;;;5.40;3.10;;;;;;4410565;28;656730;-75
2024/03/05 05:44:21;;;;;;;42.83;19.77;;;5.40;17.80;;;;;;4411832;28;656391;-74
2024/03/05 05:47:11;;;;;;;39.13;18.70;;;5.50;25.90;;;;;;4407075;28;657620;-75
2024/03/05 05:49:58;;;;;;;37.70;17.53;;;5.40;25.80;;;;;;4411030;28;657387;-75
2024/03/05 05:52:47;;;;;;;42.37;15.80;;;5.50;45.00;;;;;;4413558;28;658774;-75
2024/03/05 05:55:35;;;;;;;38.67;17.23;;;5.50;20.40;;;;;;4386846;28;658318;-75
2024/03/05 05:58:25;;;;;;;39.77;18.03;;;5.50;7.60;;;;;;4401135;28;658005;-75
2024/03/05 06:01:15;;;;;;;38.17;17.30;;;5.50;1.00;;;;;;4394109;28;657021;-76
2024/03/05 06:04:02;;;;;;;38.80;16.97;;;5.40;2.40;;;;;;4426134;28;656321;-75
2024/03/05 06:06:49;;;;;;;45.70;17.53;;;5.50;1.00;;;;;;4389148;28;657334;-74
2024/03/05 06:09:36;;;;;;;40.43;17.33;;;5.40;1.00;;;;;;4411797;28;656352;-75
2024/03/05 06:12:25;;;;;;;43.17;17.45;;;5.40;1.00;;;;;;4386799;28;657247;-75
2024/03/05 06:15:13;;;;;;;31.92;14.32;;;5.30;1.00;;;;;;4409165;28;656653;-75
2024/03/05 06:18:01;;;;;;;34.73;14.97;;;5.30;1.00;;;;;;4415753;28;657070;-75
2024/03/05 06:20:49;;;;;;;32.20;14.17;;;5.30;1.00;;;;;;4400218;28;656545;-75
2024/03/05 06:23:37;;;;;;;33.70;14.87;;;5.30;1.00;;;;;;4421269;28;656295;-75
2024/03/05 06:26:24;;;;;;;33.43;14.63;;;5.20;1.00;;;;;;4400787;28;656987;-75
2024/03/05 06:29:11;;;;;;;36.93;14.67;;;5.20;1.00;;;;;;4420390;28;656067;-75
2024/03/05 06:31:59;;;;;;;29.17;13.30;;;5.20;1.00;;;;;;4395948;28;656854;-74
2024/03/05 06:34:47;;;;;;;29.23;12.57;;;5.20;1.00;;;;;;4437944;28;656511;-75
2024/03/05 06:37:36;;;;;;;29.80;12.23;;;5.30;1.00;;;;;;4393101;28;657010;-75
2024/03/05 06:40:25;;;;;;;27.50;12.97;;;5.20;1.00;;;;;;4389810;28;656621;-75
2024/03/05 06:43:20;;;;;;;28.70;11.97;;;5.30;1.00;;;;;;4411521;28;656239;-75
2024/03/05 06:46:09;;;;;;;30.63;13.03;;;5.30;1.00;;;;;;4395732;28;656708;-75
2024/03/05 06:49:00;;;;;;;29.40;13.40;;;5.30;1.00;;;;;;4418661;28;656823;-75
2024/03/05 06:51:53;;;;;;;25.55;12.38;;;5.20;1.00;;;;;;4388946;28;656755;-75
2024/03/05 06:57:46;;;;;;;31.23;13.60;;;5.30;1.00;;;;;;4357171;28;656395;-74
2024/03/05 07:00:34;;;;;;;33.17;13.67;;;5.40;1.00;;;;;;4385207;28;656886;-75
2024/03/05 07:03:21;;;;;;;32.73;14.43;;;5.30;1.00;;;;;;4397227;28;656912;-74
2024/03/05 07:06:09;;;;;;;29.27;13.83;;;5.30;1.00;;;;;;4390417;28;656535;-74
2024/03/05 07:08:59;;;;;;;34.33;15.80;;;5.40;1.00;;;;;;4412426;28;656069;-74
2024/03/05 07:11:47;;;;;;;37.43;16.10;;;5.20;1.00;;;;;;4375490;28;656342;-75
2024/03/05 07:14:34;;;;;;;33.97;13.97;;;5.30;1.00;;;;;;4390817;28;657680;-74
2024/03/05 07:17:22;;;;;;;43.20;17.60;;;5.30;1.00;;;;;;4411559;28;656476;-74
2024/03/05 07:20:18;;;;;;;46.87;17.80;;;5.30;1.00;;;;;;4368776;28;656588;-75
2024/03/05 07:23:05;;;;;;;52.97;19.00;;;5.30;1.00;;;;;;4379321;28;657000;-74
2024/03/05 07:25:54;;;;;;;48.45;20.50;;;5.30;1.00;;;;;;4365447;28;656536;-75
2024/03/05 07:28:41;;;;;;;52.40;21.03;;;5.30;1.00;;;;;;4413478;28;656094;-74
2024/03/05 07:31:29;;;;;;;51.27;20.50;;;5.30;1.00;;;;;;4382586;28;657192;-74
2024/03/05 07:34:16;;;;;;;57.47;21.97;;;5.30;1.00;;;;;;4398728;28;656860;-74
2024/03/05 07:37:04;;;;;;;63.13;23.58;;;5.30;1.00;;;;;;4379262;28;657120;-74
2024/03/05 07:39:52;;;;;;;67.83;23.80;;;5.30;1.00;;;;;;4394120;28;656617;-74
2024/03/05 07:42:44;;;;;;;73.53;27.50;;;5.30;1.00;;;;;;4375059;28;656449;-75
2024/03/05 07:45:31;;;;;;;70.33;25.50;;;5.40;1.00;;;;;;4384953;28;657362;-74
2024/03/05 07:48:18;;;;;;;68.77;25.17;;;5.40;1.00;;;;;;4368013;28;657152;-74
2024/03/05 07:51:06;;;;;;;73.63;25.27;;;5.40;1.00;;;;;;4404716;28;656772;-74
2024/03/05 07:53:53;;;;;;;82.37;28.70;;;5.50;1.00;;;;;;4375377;28;656981;-74
2024/03/05 07:56:40;;;;;;;71.33;26.53;;;5.40;1.00;;;;;;4390200;28;657568;-74
2024/03/05 07:59:29;;;;;;;85.63;31.53;;;5.50;1.00;;;;;;4396313;28;656347;-75
2024/03/05 08:02:16;;;;;;;84.03;28.93;;;5.40;1.00;;;;;;4413137;28;656247;-74
2024/03/05 08:05:05;;;;;;;80.47;28.70;;;5.50;1.00;;;;;;4389100;28;656663;-74
2024/03/05 08:07:54;;;;;;;73.00;27.77;;;5.50;1.00;;;;;;4409711;28;656873;-75
2024/03/05 08:10:42;;;;;;;83.97;29.63;;;5.60;1.00;;;;;;4413087;28;656556;-74
2024/03/05 08:13:29;;;;;;;86.20;29.90;;;5.60;1.00;;;;;;4375398;28;657724;-74
2024/03/05 08:16:18;;;;;;;80.03;27.83;;;5.40;99.90;;;;;;4397495;28;656372;-74
2024/03/05 08:19:05;;;;;;;87.67;28.80;;;5.50;99.90;;;;;;4376195;28;657577;-74
2024/03/05 08:21:52;;;;;;;75.03;27.30;;;5.50;99.90;;;;;;4391844;28;657536;-75
2024/03/05 08:24:40;;;;;;;73.17;25.07;;;5.40;1.00;;;;;;4404351;28;658708;-74
2024/03/05 08:27:27;;;;;;;78.57;28.13;;;5.50;1.00;;;;;;4415016;28;656954;-74
2024/03/05 08:30:16;;;;;;;78.67;25.00;;;5.50;1.00;;;;;;4366683;28;657038;-74
2024/03/05 08:33:05;;;;;;;75.03;27.13;;;5.50;1.00;;;;;;4382781;28;656449;-74
2024/03/05 08:35:52;;;;;;;66.10;25.20;;;5.60;1.00;;;;;;4392294;28;656152;-74
2024/03/05 08:38:40;;;;;;;68.00;25.43;;;5.70;1.00;;;;;;4382450;28;656705;-75
2024/03/05 08:41:28;;;;;;;62.70;25.80;;;5.70;1.00;;;;;;4377934;28;656670;-75
2024/03/05 08:44:16;;;;;;;66.90;23.50;;;5.60;1.00;;;;;;4401611;28;657276;-74
2024/03/05 08:47:04;;;;;;;58.67;23.63;;;5.60;99.90;;;;;;4375569;28;656830;-77
2024/03/05 08:49:52;;;;;;;59.07;23.33;;;5.70;99.90;;;;;;4404039;28;657574;-75
2024/03/05 08:52:40;;;;;;;58.47;23.80;;;5.50;99.90;;;;;;4392895;28;659005;-75
2024/03/05 08:55:28;;;;;;;56.33;22.27;;;5.60;1.00;;;;;;4425546;28;657448;-75
2024/03/05 08:58:15;;;;;;;60.27;23.87;;;5.50;1.00;;;;;;4423007;28;657398;-75
2024/03/05 09:01:03;;;;;;;65.10;25.00;;;5.60;99.90;;;;;;4412327;28;656121;-75
2024/03/05 09:03:52;;;;;;;71.97;26.30;;;5.70;1.00;;;;;;4425585;28;658558;-75
2024/03/05 09:06:40;;;;;;;75.43;28.00;;;5.70;1.00;;;;;;4407127;28;657281;-75
2024/03/05 09:09:30;;;;;;;69.88;27.38;;;5.70;1.00;;;;;;4407302;28;657095;-75
2024/03/05 09:12:17;;;;;;;74.87;26.60;;;5.90;1.00;;;;;;4412375;28;658241;-75
2024/03/05 09:15:08;;;;;;;70.00;25.57;;;5.90;1.00;;;;;;4417451;28;658125;-74
2024/03/05 09:17:55;;;;;;;79.27;28.90;;;5.90;1.00;;;;;;4398951;28;657161;-75
2024/03/05 09:20:43;;;;;;;85.57;30.27;;;5.90;1.00;;;;;;4408786;28;656462;-74
2024/03/05 09:23:32;;;;;;;80.77;30.80;;;5.80;76.20;;;;;;4427734;28;656842;-75
2024/03/05 09:26:19;;;;;;;81.50;30.17;;;5.90;99.90;;;;;;4400833;28;658890;-75
2024/03/05 09:29:07;;;;;;;73.63;26.47;;;5.80;1.00;;;;;;4426928;28;657631;-74
2024/03/05 09:31:54;;;;;;;87.43;32.80;;;5.60;99.90;;;;;;4403847;28;656442;-75
2024/03/05 09:34:41;;;;;;;78.33;28.57;;;5.70;17.20;;;;;;4419159;28;657322;-75
2024/03/05 09:37:29;;;;;;;76.45;30.98;;;5.60;1.00;;;;;;4402427;28;658300;-75
2024/03/05 09:40:17;;;;;;;62.03;23.07;;;5.70;70.00;;;;;;4427636;28;656667;-75
2024/03/05 09:43:05;;;;;;;78.27;28.67;;;5.80;99.90;;;;;;4395884;28;658244;-75
2024/03/05 09:45:52;;;;;;;66.83;21.73;;;5.80;1.00;;;;;;4415782;28;658005;-75
2024/03/05 09:48:40;;;;;;;79.90;30.87;;;5.70;1.00;;;;;;4418838;28;657671;-75
2024/03/05 09:51:28;;;;;;;82.03;32.40;;;5.60;1.00;;;;;;4418079;28;656460;-75
2024/03/05 09:54:15;;;;;;;80.57;33.57;;;5.60;1.00;;;;;;4422925;28;656814;-75
2024/03/05 09:57:05;;;;;;;82.47;33.20;;;5.60;1.00;;;;;;4408649;28;656978;-75
2024/03/05 09:59:54;;;;;;;89.40;34.83;;;5.80;42.20;;;;;;4428203;28;657828;-75
2024/03/05 10:02:41;;;;;;;77.57;30.53;;;5.80;1.00;;;;;;4406560;28;657522;-75
2024/03/05 10:05:28;;;;;;;80.87;33.13;;;5.70;1.00;;;;;;4408948;28;657069;-75
2024/03/05 10:08:15;;;;;;;84.80;32.37;;;5.70;1.00;;;;;;4432453;28;657022;-75
2024/03/05 10:11:03;;;;;;;80.03;31.83;;;5.70;1.00;;;;;;4409775;28;656500;-75
2024/03/05 10:13:52;;;;;;;81.83;33.00;;;5.90;1.00;;;;;;4426993;28;657494;-75
2024/03/05 10:16:39;;;;;;;66.17;28.23;;;6.00;1.00;;;;;;4402211;28;657372;-75
2024/03/05 10:19:27;;;;;;;69.93;28.07;;;6.00;46.80;;;;;;4423634;28;656504;-75
2024/03/05 10:22:14;;;;;;;61.53;24.20;;;6.10;1.00;;;;;;4407050;28;657607;-75
2024/03/05 10:25:06;;;;;;;58.37;25.27;;;6.10;1.00;;;;;;4424814;28;656718;-75
2024/03/05 10:27:54;;;;;;;64.60;27.23;;;6.30;99.90;;;;;;4402462;28;656699;-75
2024/03/05 10:30:46;;;;;;;74.13;31.63;;;6.30;1.00;;;;;;4417858;28;657202;-75
2024/03/05 10:33:33;;;;;;;62.70;24.03;;;6.40;1.00;;;;;;4393166;28;657747;-75
2024/03/05 10:36:30;;;;;;;80.87;34.00;;;6.40;1.00;;;;;;4428964;28;657673;-75
2024/03/05 10:39:18;;;;;;;74.87;33.00;;;6.60;99.90;;;;;;4384213;28;657016;-75
2024/03/05 10:42:06;;;;;;;72.17;30.93;;;6.70;99.90;;;;;;4418941;28;658780;-75
2024/03/05 10:44:53;;;;;;;65.23;29.33;;;6.50;1.00;;;;;;4406604;28;658668;-75
2024/03/05 10:47:42;;;;;;;60.93;28.27;;;6.70;1.00;;;;;;4432757;28;657080;-75
2024/03/05 10:50:29;;;;;;;62.10;28.40;;;6.90;1.00;;;;;;4420725;28;656553;-75
2024/03/05 10:53:16;;;;;;;52.33;24.80;;;6.70;99.90;;;;;;4430461;28;656502;-75
2024/03/05 10:56:04;;;;;;;58.17;26.33;;;6.60;99.90;;;;;;4394324;28;657848;-75
2024/03/05 11:02:02;;;;;;;54.27;24.10;;;6.50;1.00;;;;;;4388903;28;656537;-75
2024/03/05 11:04:53;;;;;;;54.37;24.33;;;6.30;1.00;;;;;;4406706;28;657044;-75
2024/03/05 11:07:40;;;;;;;52.13;23.87;;;6.40;99.90;;;;;;4410951;28;657155;-75
2024/03/05 11:10:27;;;;;;;54.50;24.63;;;6.30;74.60;;;;;;4405701;28;657273;-74
2024/03/05 11:13:15;;;;;;;53.93;24.37;;;6.30;99.90;;;;;;4422145;28;657843;-75
2024/03/05 11:16:03;;;;;;;55.57;23.77;;;6.00;19.40;;;;;;4408064;28;657299;-75
2024/03/05 11:18:51;;;;;;;52.88;23.90;;;6.20;1.00;;;;;;4428680;28;658498;-75
2024/03/05 11:21:41;;;;;;;53.33;22.27;;;6.20;1.00;;;;;;4411084;28;656973;-75
2024/03/05 11:24:29;;;;;;;49.40;22.27;;;6.20;1.00;;;;;;4410621;28;656832;-75
2024/03/05 11:27:23;;;;;;;54.27;24.17;;;6.40;1.00;;;;;;4430339;28;657850;-75
2024/03/05 11:30:11;;;;;;;50.90;23.27;;;6.50;19.70;;;;;;4404903;28;656674;-75
2024/03/05 11:33:08;;;;;;;49.03;21.87;;;6.40;1.00;;;;;;4408226;28;657330;-75
2024/03/05 11:35:56;;;;;;;53.10;24.20;;;6.50;99.90;;;;;;4401857;28;656658;-75
2024/03/05 11:38:57;;;;;;;60.57;26.23;;;6.60;1.00;;;;;;4403069;28;658349;-75
2024/03/05 11:41:45;;;;;;;48.80;23.65;;;6.90;1.00;;;;;;4402562;28;657415;-75
2024/03/05 11:44:51;;;;;;;49.88;24.67;;;7.00;99.90;;;;;;4410416;28;656794;-75
2024/03/05 11:47:39;;;;;;;55.60;25.90;;;7.10;1.00;;;;;;4398271;28;658084;-75
2024/03/05 11:50:26;;;;;;;62.87;30.80;;;7.30;1.00;;;;;;4427042;28;657940;-75
2024/03/05 11:53:13;;;;;;;78.20;39.77;;;7.40;1.00;;;;;;4404513;28;656770;-75
2024/03/05 11:56:08;;;;;;;70.07;34.73;;;7.30;1.00;;;;;;4424790;28;657026;-75
2024/03/05 11:58:55;;;;;;;68.60;35.00;;;7.10;99.90;;;;;;4395633;28;656811;-75
2024/03/05 12:01:42;;;;;;;57.23;30.43;;;7.00;99.90;;;;;;4406690;28;657820;-75
2024/03/05 12:04:30;;;;;;;62.60;31.77;;;6.80;99.90;;;;;;4424515;28;658810;-74
2024/03/05 12:07:18;;;;;;;67.17;32.00;;;6.90;1.00;;;;;;4411326;28;657601;-75
2024/03/05 12:10:06;;;;;;;57.03;30.60;;;6.90;99.90;;;;;;4428982;28;657486;-75
2024/03/05 12:12:55;;;;;;;61.80;31.43;;;6.90;1.00;;;;;;4405217;28;657421;-75
2024/03/05 12:15:42;;;;;;;60.90;29.27;;;6.90;99.90;;;;;;4414109;28;656760;-75
2024/03/05 12:18:30;;;;;;;60.27;27.80;;;6.90;1.00;;;;;;4425510;28;657766;-75
2024/03/05 12:21:17;;;;;;;59.40;29.90;;;6.80;1.00;;;;;;4410923;28;656914;-75
2024/03/05 12:24:06;;;;;;;58.67;28.73;;;6.70;1.00;;;;;;4423872;28;657099;-75
2024/03/05 12:26:54;;;;;;;57.57;28.67;;;6.80;99.90;;;;;;4404298;28;656478;-75
2024/03/05 12:29:43;;;;;;;60.60;29.37;;;6.80;1.00;;;;;;4419751;28;657765;-75
2024/03/05 12:32:30;;;;;;;59.80;30.27;;;6.90;10.10;;;;;;4403743;28;656555;-75
2024/03/05 12:35:18;;;;;;;63.57;32.57;;;6.90;84.20;;;;;;4402389;28;657568;-75
2024/03/05 12:38:06;;;;;;;69.47;34.00;;;7.00;99.90;;;;;;4420224;28;658746;-75
2024/03/05 12:41:02;;;;;;;66.57;33.93;;;7.20;1.00;;;;;;4401159;28;657652;-75
2024/03/05 12:43:53;;;;;;;65.90;35.23;;;7.20;99.90;;;;;;4389430;28;657028;-75
2024/03/05 12:46:41;;;;;;;63.03;33.23;;;7.20;99.90;;;;;;4406473;28;657846;-75
2024/03/05 12:49:29;;;;;;;65.43;35.40;;;7.40;1.00;;;;;;4400907;28;658169;-75
2024/03/05 12:52:19;;;;;;;63.38;33.92;;;7.40;99.90;;;;;;4419078;28;656851;-75
2024/03/05 12:55:07;;;;;;;62.80;33.17;;;7.50;1.00;;;;;;4387576;28;657923;-75
2024/03/05 12:58:04;;;;;;;62.87;31.80;;;7.40;1.00;;;;;;4390209;28;656797;-75
2024/03/05 13:00:54;;;;;;;59.07;30.70;;;7.50;99.90;;;;;;4380225;28;656825;-75
2024/03/05 13:03:44;;;;;;;57.00;29.93;;;7.50;1.00;;;;;;4382740;28;657798;-75
2024/03/05 13:06:32;;;;;;;54.20;29.20;;;7.40;1.00;;;;;;4406572;28;657651;-75
2024/03/05 13:09:20;;;;;;;56.20;28.90;;;7.60;1.00;;;;;;4405128;28;657046;-75
2024/03/05 13:12:08;;;;;;;50.13;26.07;;;7.50;99.90;;;;;;4389526;28;656448;-75
2024/03/05 13:14:55;;;;;;;53.00;25.30;;;7.20;1.00;;;;;;4421974;28;658135;-74
2024/03/05 13:17:42;;;;;;;48.47;25.33;;;7.20;1.00;;;;;;4400958;28;656907;-74
2024/03/05 13:20:32;;;;;;;43.77;24.03;;;7.20;72.60;;;;;;4425177;28;656200;-74
2024/03/05 13:23:19;;;;;;;46.10;23.13;;;7.40;99.90;;;;;;4397537;28;657335;-74
2024/03/05 13:26:07;;;;;;;47.60;24.50;;;7.40;1.00;;;;;;4400797;28;657599;-74
2024/03/05 13:28:55;;;;;;;48.67;23.27;;;7.30;1.00;;;;;;4378734;28;657763;-74
2024/03/05 13:31:42;;;;;;;55.50;25.37;;;7.20;1.00;;;;;;4411235;28;657453;-74
2024/03/05 13:34:30;;;;;;;53.20;25.00;;;6.90;99.90;;;;;;4412620;28;657362;-73
2024/03/05 13:37:21;;;;;;;48.87;24.80;;;7.00;1.00;;;;;;4406853;28;657939;-75
2024/03/05 13:40:11;;;;;;;51.90;24.67;;;7.10;99.90;;;;;;4392057;28;656273;-75
2024/03/05 13:42:58;;;;;;;51.80;26.53;;;7.10;1.00;;;;;;4390154;28;657663;-74
2024/03/05 13:45:47;;;;;;;47.97;24.97;;;7.10;99.90;;;;;;4414580;28;656704;-75
2024/03/05 13:48:34;;;;;;;54.53;25.60;;;7.10;1.00;;;;;;4392848;28;658045;-72
2024/03/05 13:51:21;;;;;;;47.07;24.73;;;7.10;99.90;;;;;;4416075;28;656717;-77
2024/03/05 13:54:10;;;;;;;48.63;26.80;;;6.90;1.00;;;;;;4388162;28;657605;-75
2024/03/05 13:56:59;;;;;;;51.55;27.60;;;7.00;99.90;;;;;;4387081;28;656664;-75
2024/03/05 13:59:46;;;;;;;50.90;25.77;;;7.10;99.90;;;;;;4420157;28;657959;-75
2024/03/05 14:02:33;;;;;;;47.67;24.90;;;7.10;1.00;;;;;;4378331;28;657415;-74
2024/03/05 14:05:21;;;;;;;50.03;24.57;;;7.20;1.00;;;;;;4429747;28;656811;-74
2024/03/05 14:08:11;;;;;;;37.53;20.37;;;7.10;69.30;;;;;;4407312;28;657293;-75
2024/03/05 14:11:01;;;;;;;39.57;21.97;;;6.80;99.90;;;;;;4400125;28;657620;-76
2024/03/05 14:13:48;;;;;;;37.37;20.00;;;6.80;1.00;;;;;;4407615;28;657294;-76
2024/03/05 14:16:38;;;;;;;34.07;19.53;;;6.90;1.00;;;;;;4430982;28;657113;-75
2024/03/05 14:19:25;;;;;;;35.87;18.63;;;6.90;1.00;;;;;;4396202;28;657286;-75
2024/03/05 14:22:12;;;;;;;32.07;17.43;;;6.90;99.90;;;;;;4409717;28;656853;-75
2024/03/05 14:25:00;;;;;;;37.33;18.77;;;6.90;99.90;;;;;;4407864;28;658287;-75